sensor_id;sensor_type;location;lat;lon;timestamp;P1;durP1;ratioP1;P2;durP2;ratioP2
51358;SDS011;37448;51.588;7.248;2022-10-19T00:02:11;8.93;;;3.40;;
51358;SDS011;37448;51.588;7.248;2022-10-19T00:04:41;8.50;;;3.63;;
51358;SDS011;37448;51.588;7.248;2022-10-19T00:07:12;9.10;;;3.83;;
51358;SDS011;37448;51.588;7.248;2022-10-19T00:09:43;8.15;;;3.55;;
51358;SDS011;37448;51.588;7.248;2022-10-19T00:12:13;8.57;;;3.42;;
51358;SDS011;37448;51.588;7.248;2022-10-19T00:14:44;11.98;;;3.90;;
51358;SDS011;37448;51.588;7.248;2022-10-19T00:17:14;9.23;;;3.88;;
51358;SDS011;37448;51.588;7.248;2022-10-19T00:19:44;9.45;;;3.25;;
51358;SDS011;37448;51.588;7.248;2022-10-19T00:22:15;11.15;;;3.88;;
51358;SDS011;37448;51.588;7.248;2022-10-19T00:24:45;8.15;;;3.42;;
51358;SDS011;37448;51.588;7.248;2022-10-19T00:27:15;8.95;;;3.78;;
51358;SDS011;37448;51.588;7.248;2022-10-19T00:29:46;12.80;;;3.90;;
51358;SDS011;37448;51.588;7.248;2022-10-19T00:32:16;9.65;;;4.18;;
51358;SDS011;37448;51.588;7.248;2022-10-19T00:34:47;11.10;;;4.53;;
51358;SDS011;37448;51.588;7.248;2022-10-19T00:37:17;10.95;;;4.20;;
51358;SDS011;37448;51.588;7.248;2022-10-19T00:39:48;11.00;;;4.32;;
51358;SDS011;37448;51.588;7.248;2022-10-19T00:42:18;9.18;;;4.47;;
51358;SDS011;37448;51.588;7.248;2022-10-19T00:47:19;13.32;;;4.40;;
51358;SDS011;37448;51.588;7.248;2022-10-19T00:49:52;11.85;;;4.40;;
51358;SDS011;37448;51.588;7.248;2022-10-19T00:52:24;11.25;;;4.28;;
51358;SDS011;37448;51.588;7.248;2022-10-19T00:54:55;10.00;;;4.03;;
51358;SDS011;37448;51.588;7.248;2022-10-19T00:57:27;10.70;;;4.68;;
51358;SDS011;37448;51.588;7.248;2022-10-19T00:59:59;10.55;;;3.42;;
51358;SDS011;37448;51.588;7.248;2022-10-19T01:02:31;10.75;;;3.55;;
51358;SDS011;37448;51.588;7.248;2022-10-19T01:05:02;11.82;;;4.15;;
51358;SDS011;37448;51.588;7.248;2022-10-19T01:07:33;10.05;;;3.92;;
51358;SDS011;37448;51.588;7.248;2022-10-19T01:10:04;7.80;;;3.90;;
51358;SDS011;37448;51.588;7.248;2022-10-19T01:18:33;13.75;;;5.30;;
51358;SDS011;37448;51.588;7.248;2022-10-19T01:21:24;19.15;;;5.60;;
51358;SDS011;37448;51.588;7.248;2022-10-19T01:29:37;11.70;;;4.15;;
51358;SDS011;37448;51.588;7.248;2022-10-19T01:41:10;8.60;;;3.60;;
51358;SDS011;37448;51.588;7.248;2022-10-19T01:44:02;12.25;;;4.20;;
51358;SDS011;37448;51.588;7.248;2022-10-19T01:46:42;11.63;;;4.00;;
51358;SDS011;37448;51.588;7.248;2022-10-19T01:49:18;11.20;;;4.65;;
51358;SDS011;37448;51.588;7.248;2022-10-19T01:51:55;10.07;;;5.00;;
51358;SDS011;37448;51.588;7.248;2022-10-19T01:54:32;8.48;;;3.90;;
51358;SDS011;37448;51.588;7.248;2022-10-19T01:57:08;11.02;;;4.00;;
51358;SDS011;37448;51.588;7.248;2022-10-19T01:59:42;9.02;;;3.92;;
51358;SDS011;37448;51.588;7.248;2022-10-19T02:02:14;10.35;;;4.15;;
51358;SDS011;37448;51.588;7.248;2022-10-19T02:04:47;9.73;;;4.38;;
51358;SDS011;37448;51.588;7.248;2022-10-19T02:07:19;10.70;;;4.43;;
51358;SDS011;37448;51.588;7.248;2022-10-19T02:09:51;11.57;;;4.00;;
51358;SDS011;37448;51.588;7.248;2022-10-19T02:12:21;10.88;;;4.32;;
51358;SDS011;37448;51.588;7.248;2022-10-19T02:14:54;11.10;;;4.00;;
51358;SDS011;37448;51.588;7.248;2022-10-19T02:19:59;12.07;;;5.07;;
51358;SDS011;37448;51.588;7.248;2022-10-19T02:22:30;7.90;;;3.90;;
51358;SDS011;37448;51.588;7.248;2022-10-19T02:25:01;10.73;;;4.40;;
51358;SDS011;37448;51.588;7.248;2022-10-19T02:27:32;11.48;;;4.07;;
51358;SDS011;37448;51.588;7.248;2022-10-19T02:30:03;12.18;;;4.15;;
51358;SDS011;37448;51.588;7.248;2022-10-19T02:32:34;9.43;;;4.80;;
51358;SDS011;37448;51.588;7.248;2022-10-19T02:35:05;11.93;;;4.20;;
51358;SDS011;37448;51.588;7.248;2022-10-19T02:37:36;10.40;;;3.80;;
51358;SDS011;37448;51.588;7.248;2022-10-19T02:40:07;10.48;;;4.35;;
51358;SDS011;37448;51.588;7.248;2022-10-19T02:42:40;9.43;;;4.25;;
51358;SDS011;37448;51.588;7.248;2022-10-19T02:45:25;11.23;;;4.63;;
51358;SDS011;37448;51.588;7.248;2022-10-19T02:48:01;13.02;;;4.72;;
51358;SDS011;37448;51.588;7.248;2022-10-19T02:50:34;10.57;;;5.07;;
51358;SDS011;37448;51.588;7.248;2022-10-19T02:53:04;10.85;;;5.20;;
51358;SDS011;37448;51.588;7.248;2022-10-19T02:55:35;10.52;;;4.55;;
51358;SDS011;37448;51.588;7.248;2022-10-19T02:58:05;10.90;;;4.70;;
51358;SDS011;37448;51.588;7.248;2022-10-19T03:00:35;12.15;;;5.22;;
51358;SDS011;37448;51.588;7.248;2022-10-19T03:03:06;11.57;;;5.00;;
51358;SDS011;37448;51.588;7.248;2022-10-19T03:05:36;14.75;;;6.47;;
51358;SDS011;37448;51.588;7.248;2022-10-19T03:08:06;16.60;;;8.15;;
51358;SDS011;37448;51.588;7.248;2022-10-19T03:10:37;20.50;;;8.00;;
51358;SDS011;37448;51.588;7.248;2022-10-19T03:13:07;21.75;;;8.73;;
51358;SDS011;37448;51.588;7.248;2022-10-19T03:15:38;17.80;;;8.63;;
51358;SDS011;37448;51.588;7.248;2022-10-19T03:18:08;15.57;;;7.47;;
51358;SDS011;37448;51.588;7.248;2022-10-19T03:20:38;17.33;;;8.15;;
51358;SDS011;37448;51.588;7.248;2022-10-19T03:23:09;19.77;;;8.88;;
51358;SDS011;37448;51.588;7.248;2022-10-19T03:25:39;20.48;;;8.50;;
51358;SDS011;37448;51.588;7.248;2022-10-19T03:28:09;23.50;;;10.45;;
51358;SDS011;37448;51.588;7.248;2022-10-19T03:30:40;23.73;;;11.80;;
51358;SDS011;37448;51.588;7.248;2022-10-19T03:33:10;26.40;;;12.05;;
51358;SDS011;37448;51.588;7.248;2022-10-19T03:35:40;34.47;;;12.70;;
51358;SDS011;37448;51.588;7.248;2022-10-19T03:38:11;50.65;;;13.52;;
51358;SDS011;37448;51.588;7.248;2022-10-19T03:40:41;34.75;;;13.75;;
51358;SDS011;37448;51.588;7.248;2022-10-19T03:43:12;33.17;;;13.60;;
51358;SDS011;37448;51.588;7.248;2022-10-19T03:45:44;35.95;;;13.85;;
51358;SDS011;37448;51.588;7.248;2022-10-19T03:48:16;81.75;;;15.55;;
51358;SDS011;37448;51.588;7.248;2022-10-19T03:50:46;33.40;;;12.07;;
51358;SDS011;37448;51.588;7.248;2022-10-19T03:53:16;29.60;;;10.68;;
51358;SDS011;37448;51.588;7.248;2022-10-19T03:55:47;39.08;;;11.95;;
51358;SDS011;37448;51.588;7.248;2022-10-19T03:58:17;29.35;;;11.85;;
51358;SDS011;37448;51.588;7.248;2022-10-19T04:00:48;20.33;;;9.82;;
51358;SDS011;37448;51.588;7.248;2022-10-19T04:03:18;20.02;;;9.68;;
51358;SDS011;37448;51.588;7.248;2022-10-19T04:05:48;19.75;;;9.43;;
51358;SDS011;37448;51.588;7.248;2022-10-19T04:08:19;19.90;;;9.02;;
51358;SDS011;37448;51.588;7.248;2022-10-19T04:10:49;18.13;;;8.27;;
51358;SDS011;37448;51.588;7.248;2022-10-19T04:13:19;18.00;;;8.45;;
51358;SDS011;37448;51.588;7.248;2022-10-19T04:15:50;15.80;;;7.35;;
51358;SDS011;37448;51.588;7.248;2022-10-19T04:18:20;16.33;;;7.60;;
51358;SDS011;37448;51.588;7.248;2022-10-19T04:20:57;12.57;;;7.15;;
51358;SDS011;37448;51.588;7.248;2022-10-19T04:23:30;15.73;;;7.80;;
51358;SDS011;37448;51.588;7.248;2022-10-19T04:26:05;16.63;;;7.88;;
51358;SDS011;37448;51.588;7.248;2022-10-19T04:28:36;16.45;;;7.07;;
51358;SDS011;37448;51.588;7.248;2022-10-19T04:31:06;13.05;;;7.40;;
51358;SDS011;37448;51.588;7.248;2022-10-19T04:33:37;17.50;;;8.05;;
51358;SDS011;37448;51.588;7.248;2022-10-19T04:36:08;17.98;;;7.95;;
51358;SDS011;37448;51.588;7.248;2022-10-19T04:38:40;16.17;;;7.05;;
51358;SDS011;37448;51.588;7.248;2022-10-19T04:41:12;20.27;;;8.35;;
51358;SDS011;37448;51.588;7.248;2022-10-19T04:43:45;20.00;;;8.52;;
51358;SDS011;37448;51.588;7.248;2022-10-19T04:46:17;23.02;;;8.50;;
51358;SDS011;37448;51.588;7.248;2022-10-19T04:48:48;24.90;;;9.18;;
51358;SDS011;37448;51.588;7.248;2022-10-19T04:51:19;69.53;;;11.13;;
51358;SDS011;37448;51.588;7.248;2022-10-19T04:53:50;36.90;;;9.73;;
51358;SDS011;37448;51.588;7.248;2022-10-19T04:56:22;73.95;;;10.90;;
51358;SDS011;37448;51.588;7.248;2022-10-19T04:58:55;59.50;;;10.82;;
51358;SDS011;37448;51.588;7.248;2022-10-19T05:01:27;64.93;;;12.48;;
51358;SDS011;37448;51.588;7.248;2022-10-19T05:03:59;73.57;;;11.23;;
51358;SDS011;37448;51.588;7.248;2022-10-19T05:06:31;45.70;;;10.50;;
51358;SDS011;37448;51.588;7.248;2022-10-19T05:09:02;61.47;;;11.73;;
51358;SDS011;37448;51.588;7.248;2022-10-19T05:11:32;54.67;;;13.18;;
51358;SDS011;37448;51.588;7.248;2022-10-19T05:14:03;43.97;;;11.23;;
51358;SDS011;37448;51.588;7.248;2022-10-19T05:16:33;68.60;;;15.52;;
51358;SDS011;37448;51.588;7.248;2022-10-19T05:19:03;78.00;;;12.98;;
51358;SDS011;37448;51.588;7.248;2022-10-19T05:21:34;55.25;;;11.55;;
51358;SDS011;37448;51.588;7.248;2022-10-19T05:24:04;62.17;;;10.98;;
51358;SDS011;37448;51.588;7.248;2022-10-19T05:26:35;92.20;;;13.07;;
51358;SDS011;37448;51.588;7.248;2022-10-19T05:29:05;56.08;;;11.57;;
51358;SDS011;37448;51.588;7.248;2022-10-19T05:31:35;54.60;;;10.60;;
51358;SDS011;37448;51.588;7.248;2022-10-19T05:34:06;32.22;;;11.13;;
51358;SDS011;37448;51.588;7.248;2022-10-19T05:36:37;36.28;;;11.73;;
51358;SDS011;37448;51.588;7.248;2022-10-19T05:39:12;28.73;;;10.85;;
51358;SDS011;37448;51.588;7.248;2022-10-19T05:41:44;35.08;;;12.77;;
51358;SDS011;37448;51.588;7.248;2022-10-19T05:44:19;37.22;;;11.27;;
51358;SDS011;37448;51.588;7.248;2022-10-19T05:46:51;37.50;;;13.32;;
51358;SDS011;37448;51.588;7.248;2022-10-19T05:49:21;42.15;;;13.57;;
51358;SDS011;37448;51.588;7.248;2022-10-19T05:51:51;51.63;;;13.35;;
51358;SDS011;37448;51.588;7.248;2022-10-19T05:54:22;47.95;;;11.93;;
51358;SDS011;37448;51.588;7.248;2022-10-19T05:56:52;62.28;;;14.77;;
51358;SDS011;37448;51.588;7.248;2022-10-19T05:59:23;43.78;;;14.10;;
51358;SDS011;37448;51.588;7.248;2022-10-19T06:01:53;50.92;;;13.38;;
51358;SDS011;37448;51.588;7.248;2022-10-19T06:04:24;68.35;;;13.48;;
51358;SDS011;37448;51.588;7.248;2022-10-19T06:06:54;41.90;;;13.27;;
51358;SDS011;37448;51.588;7.248;2022-10-19T06:09:24;43.13;;;12.40;;
51358;SDS011;37448;51.588;7.248;2022-10-19T06:11:55;66.82;;;13.73;;
51358;SDS011;37448;51.588;7.248;2022-10-19T06:14:25;37.17;;;13.10;;
51358;SDS011;37448;51.588;7.248;2022-10-19T06:16:55;55.13;;;11.00;;
51358;SDS011;37448;51.588;7.248;2022-10-19T06:19:26;67.05;;;13.27;;
51358;SDS011;37448;51.588;7.248;2022-10-19T06:21:57;38.53;;;10.93;;
51358;SDS011;37448;51.588;7.248;2022-10-19T06:24:27;40.25;;;12.65;;
51358;SDS011;37448;51.588;7.248;2022-10-19T06:26:57;44.08;;;11.05;;
51358;SDS011;37448;51.588;7.248;2022-10-19T06:29:28;94.65;;;13.43;;
51358;SDS011;37448;51.588;7.248;2022-10-19T06:31:58;55.97;;;12.65;;
51358;SDS011;37448;51.588;7.248;2022-10-19T06:34:29;55.03;;;12.75;;
51358;SDS011;37448;51.588;7.248;2022-10-19T06:36:59;101.25;;;15.80;;
51358;SDS011;37448;51.588;7.248;2022-10-19T06:39:30;83.25;;;12.65;;
51358;SDS011;37448;51.588;7.248;2022-10-19T06:42:00;87.65;;;13.65;;
51358;SDS011;37448;51.588;7.248;2022-10-19T06:44:30;68.75;;;12.52;;
51358;SDS011;37448;51.588;7.248;2022-10-19T06:47:01;37.70;;;10.77;;
51358;SDS011;37448;51.588;7.248;2022-10-19T06:49:31;63.88;;;11.73;;
51358;SDS011;37448;51.588;7.248;2022-10-19T06:52:04;77.35;;;12.50;;
51358;SDS011;37448;51.588;7.248;2022-10-19T06:54:36;116.55;;;13.30;;
51358;SDS011;37448;51.588;7.248;2022-10-19T06:57:06;50.05;;;11.63;;
51358;SDS011;37448;51.588;7.248;2022-10-19T06:59:37;35.78;;;10.23;;
51358;SDS011;37448;51.588;7.248;2022-10-19T07:02:09;37.95;;;9.93;;
51358;SDS011;37448;51.588;7.248;2022-10-19T07:04:40;42.67;;;9.55;;
51358;SDS011;37448;51.588;7.248;2022-10-19T07:07:10;41.67;;;10.40;;
51358;SDS011;37448;51.588;7.248;2022-10-19T07:09:41;24.90;;;10.73;;
51358;SDS011;37448;51.588;7.248;2022-10-19T07:12:11;73.60;;;11.48;;
51358;SDS011;37448;51.588;7.248;2022-10-19T07:14:41;79.28;;;12.88;;
51358;SDS011;37448;51.588;7.248;2022-10-19T07:17:12;63.88;;;12.38;;
51358;SDS011;37448;51.588;7.248;2022-10-19T07:19:42;30.88;;;10.40;;
51358;SDS011;37448;51.588;7.248;2022-10-19T07:22:13;42.53;;;11.63;;
51358;SDS011;37448;51.588;7.248;2022-10-19T07:24:43;27.88;;;10.30;;
51358;SDS011;37448;51.588;7.248;2022-10-19T07:27:14;42.30;;;11.77;;
51358;SDS011;37448;51.588;7.248;2022-10-19T07:29:44;64.97;;;12.63;;
51358;SDS011;37448;51.588;7.248;2022-10-19T07:32:15;30.70;;;11.88;;
51358;SDS011;37448;51.588;7.248;2022-10-19T07:34:45;25.02;;;11.00;;
51358;SDS011;37448;51.588;7.248;2022-10-19T07:37:16;31.23;;;11.50;;
51358;SDS011;37448;51.588;7.248;2022-10-19T07:39:46;31.27;;;11.40;;
51358;SDS011;37448;51.588;7.248;2022-10-19T07:42:16;35.92;;;12.68;;
51358;SDS011;37448;51.588;7.248;2022-10-19T07:44:47;37.20;;;14.60;;
51358;SDS011;37448;51.588;7.248;2022-10-19T07:47:17;51.53;;;19.77;;
51358;SDS011;37448;51.588;7.248;2022-10-19T07:49:48;78.00;;;21.02;;
51358;SDS011;37448;51.588;7.248;2022-10-19T07:52:19;65.05;;;22.10;;
51358;SDS011;37448;51.588;7.248;2022-10-19T07:54:49;84.75;;;18.85;;
51358;SDS011;37448;51.588;7.248;2022-10-19T07:57:19;64.85;;;18.00;;
51358;SDS011;37448;51.588;7.248;2022-10-19T07:59:51;58.95;;;18.25;;
51358;SDS011;37448;51.588;7.248;2022-10-19T08:02:21;45.33;;;19.40;;
51358;SDS011;37448;51.588;7.248;2022-10-19T08:04:52;50.28;;;18.15;;
51358;SDS011;37448;51.588;7.248;2022-10-19T08:07:22;48.22;;;19.73;;
51358;SDS011;37448;51.588;7.248;2022-10-19T08:09:52;70.32;;;23.00;;
51358;SDS011;37448;51.588;7.248;2022-10-19T08:12:23;82.97;;;25.02;;
51358;SDS011;37448;51.588;7.248;2022-10-19T08:14:53;104.40;;;28.83;;
51358;SDS011;37448;51.588;7.248;2022-10-19T08:17:23;98.90;;;28.33;;
51358;SDS011;37448;51.588;7.248;2022-10-19T08:19:54;106.88;;;30.98;;
51358;SDS011;37448;51.588;7.248;2022-10-19T08:22:24;118.30;;;35.28;;
51358;SDS011;37448;51.588;7.248;2022-10-19T08:24:54;126.47;;;35.63;;
51358;SDS011;37448;51.588;7.248;2022-10-19T08:27:25;143.73;;;38.15;;
51358;SDS011;37448;51.588;7.248;2022-10-19T08:29:55;131.85;;;37.00;;
51358;SDS011;37448;51.588;7.248;2022-10-19T08:32:26;124.38;;;34.47;;
51358;SDS011;37448;51.588;7.248;2022-10-19T08:34:56;141.93;;;37.00;;
51358;SDS011;37448;51.588;7.248;2022-10-19T08:37:26;121.97;;;38.10;;
51358;SDS011;37448;51.588;7.248;2022-10-19T08:39:57;122.22;;;36.13;;
51358;SDS011;37448;51.588;7.248;2022-10-19T08:42:30;86.80;;;32.15;;
51358;SDS011;37448;51.588;7.248;2022-10-19T08:48:02;52.25;;;22.42;;
51358;SDS011;37448;51.588;7.248;2022-10-19T08:53:26;38.35;;;17.25;;
51358;SDS011;37448;51.588;7.248;2022-10-19T08:56:07;44.22;;;19.95;;
51358;SDS011;37448;51.588;7.248;2022-10-19T09:01:57;29.15;;;16.63;;
51358;SDS011;37448;51.588;7.248;2022-10-19T09:04:32;28.10;;;15.02;;
51358;SDS011;37448;51.588;7.248;2022-10-19T09:15:37;19.58;;;9.57;;
51358;SDS011;37448;51.588;7.248;2022-10-19T09:18:10;17.65;;;9.02;;
51358;SDS011;37448;51.588;7.248;2022-10-19T09:20:48;16.15;;;8.30;;
51358;SDS011;37448;51.588;7.248;2022-10-19T09:23:25;19.67;;;8.00;;
51358;SDS011;37448;51.588;7.248;2022-10-19T09:25:58;16.00;;;7.50;;
51358;SDS011;37448;51.588;7.248;2022-10-19T09:28:46;14.80;;;7.43;;
51358;SDS011;37448;51.588;7.248;2022-10-19T09:31:30;13.23;;;6.38;;
51358;SDS011;37448;51.588;7.248;2022-10-19T09:34:09;13.98;;;6.75;;
51358;SDS011;37448;51.588;7.248;2022-10-19T09:36:48;15.32;;;6.93;;
51358;SDS011;37448;51.588;7.248;2022-10-19T09:39:22;15.65;;;4.97;;
51358;SDS011;37448;51.588;7.248;2022-10-19T09:41:55;16.48;;;8.13;;
51358;SDS011;37448;51.588;7.248;2022-10-19T09:44:28;11.82;;;4.97;;
51358;SDS011;37448;51.588;7.248;2022-10-19T09:49:46;10.40;;;3.57;;
51358;SDS011;37448;51.588;7.248;2022-10-19T09:52:21;12.85;;;4.50;;
51358;SDS011;37448;51.588;7.248;2022-10-19T09:58:00;8.68;;;3.60;;
51358;SDS011;37448;51.588;7.248;2022-10-19T10:00:50;7.70;;;2.72;;
51358;SDS011;37448;51.588;7.248;2022-10-19T10:06:02;10.40;;;3.00;;
51358;SDS011;37448;51.588;7.248;2022-10-19T10:08:36;8.18;;;3.08;;
51358;SDS011;37448;51.588;7.248;2022-10-19T10:11:10;6.10;;;2.30;;
51358;SDS011;37448;51.588;7.248;2022-10-19T10:13:48;8.80;;;2.45;;
51358;SDS011;37448;51.588;7.248;2022-10-19T10:16:21;7.95;;;2.95;;
51358;SDS011;37448;51.588;7.248;2022-10-19T10:21:33;11.18;;;3.70;;
51358;SDS011;37448;51.588;7.248;2022-10-19T10:26:44;9.83;;;3.47;;
51358;SDS011;37448;51.588;7.248;2022-10-19T10:31:53;8.00;;;2.40;;
51358;SDS011;37448;51.588;7.248;2022-10-19T10:37:37;11.05;;;2.88;;
51358;SDS011;37448;51.588;7.248;2022-10-19T10:40:26;7.45;;;2.45;;
51358;SDS011;37448;51.588;7.248;2022-10-19T10:43:05;11.13;;;2.25;;
51358;SDS011;37448;51.588;7.248;2022-10-19T10:45:39;7.55;;;2.80;;
51358;SDS011;37448;51.588;7.248;2022-10-19T10:50:59;9.38;;;2.63;;
51358;SDS011;37448;51.588;7.248;2022-10-19T10:53:38;7.40;;;2.92;;
51358;SDS011;37448;51.588;7.248;2022-10-19T10:56:56;8.25;;;2.50;;
51358;SDS011;37448;51.588;7.248;2022-10-19T10:59:11;10.20;;;2.13;;
51358;SDS011;37448;51.588;7.248;2022-10-19T11:01:58;9.48;;;3.05;;
51358;SDS011;37448;51.588;7.248;2022-10-19T11:04:34;8.48;;;1.80;;
51358;SDS011;37448;51.588;7.248;2022-10-19T11:07:16;7.85;;;1.70;;
51358;SDS011;37448;51.588;7.248;2022-10-19T11:09:53;7.85;;;2.45;;
51358;SDS011;37448;51.588;7.248;2022-10-19T11:12:31;9.27;;;2.20;;
51358;SDS011;37448;51.588;7.248;2022-10-19T11:15:11;6.90;;;2.50;;
51358;SDS011;37448;51.588;7.248;2022-10-19T11:17:53;7.45;;;2.28;;
51358;SDS011;37448;51.588;7.248;2022-10-19T11:20:29;6.20;;;1.95;;
51358;SDS011;37448;51.588;7.248;2022-10-19T11:23:35;7.33;;;2.20;;
51358;SDS011;37448;51.588;7.248;2022-10-19T11:31:47;6.32;;;2.83;;
51358;SDS011;37448;51.588;7.248;2022-10-19T11:36:58;6.93;;;1.95;;
51358;SDS011;37448;51.588;7.248;2022-10-19T11:39:49;8.65;;;2.30;;
51358;SDS011;37448;51.588;7.248;2022-10-19T11:45:27;6.73;;;2.00;;
51358;SDS011;37448;51.588;7.248;2022-10-19T11:48:19;6.35;;;2.00;;
51358;SDS011;37448;51.588;7.248;2022-10-19T11:50:57;8.75;;;2.80;;
51358;SDS011;37448;51.588;7.248;2022-10-19T11:56:18;8.20;;;1.92;;
51358;SDS011;37448;51.588;7.248;2022-10-19T12:05:12;6.80;;;1.60;;
51358;SDS011;37448;51.588;7.248;2022-10-19T12:13:18;7.78;;;2.17;;
51358;SDS011;37448;51.588;7.248;2022-10-19T12:15:52;6.45;;;2.10;;
51358;SDS011;37448;51.588;7.248;2022-10-19T12:21:21;8.48;;;2.47;;
51358;SDS011;37448;51.588;7.248;2022-10-19T12:23:58;9.40;;;2.17;;
51358;SDS011;37448;51.588;7.248;2022-10-19T12:26:33;9.73;;;2.17;;
51358;SDS011;37448;51.588;7.248;2022-10-19T12:29:06;9.15;;;2.53;;
51358;SDS011;37448;51.588;7.248;2022-10-19T12:31:46;8.88;;;1.95;;
51358;SDS011;37448;51.588;7.248;2022-10-19T12:43:09;9.25;;;2.60;;
51358;SDS011;37448;51.588;7.248;2022-10-19T12:51:56;11.65;;;2.30;;
51358;SDS011;37448;51.588;7.248;2022-10-19T12:54:29;5.53;;;1.98;;
51358;SDS011;37448;51.588;7.248;2022-10-19T12:57:02;5.82;;;2.35;;
51358;SDS011;37448;51.588;7.248;2022-10-19T12:59:56;7.97;;;2.40;;
51358;SDS011;37448;51.588;7.248;2022-10-19T13:02:33;9.50;;;2.58;;
51358;SDS011;37448;51.588;7.248;2022-10-19T13:05:05;7.32;;;2.17;;
51358;SDS011;37448;51.588;7.248;2022-10-19T13:07:36;8.55;;;2.38;;
51358;SDS011;37448;51.588;7.248;2022-10-19T13:10:12;6.47;;;2.53;;
51358;SDS011;37448;51.588;7.248;2022-10-19T13:12:49;7.50;;;2.42;;
51358;SDS011;37448;51.588;7.248;2022-10-19T13:18:12;6.88;;;2.17;;
51358;SDS011;37448;51.588;7.248;2022-10-19T13:20:47;7.03;;;2.08;;
51358;SDS011;37448;51.588;7.248;2022-10-19T13:26:21;8.45;;;2.67;;
51358;SDS011;37448;51.588;7.248;2022-10-19T13:29:00;6.25;;;2.38;;
51358;SDS011;37448;51.588;7.248;2022-10-19T13:31:30;10.32;;;2.00;;
51358;SDS011;37448;51.588;7.248;2022-10-19T13:34:03;6.50;;;1.67;;
51358;SDS011;37448;51.588;7.248;2022-10-19T13:36:46;7.15;;;2.15;;
51358;SDS011;37448;51.588;7.248;2022-10-19T13:39:28;9.10;;;1.98;;
51358;SDS011;37448;51.588;7.248;2022-10-19T13:41:59;7.32;;;1.70;;
51358;SDS011;37448;51.588;7.248;2022-10-19T13:44:30;4.43;;;1.50;;
51358;SDS011;37448;51.588;7.248;2022-10-19T13:58:32;7.07;;;1.77;;
51358;SDS011;37448;51.588;7.248;2022-10-19T14:07:31;3.92;;;1.30;;
51358;SDS011;37448;51.588;7.248;2022-10-19T14:10:21;8.52;;;1.88;;
51358;SDS011;37448;51.588;7.248;2022-10-19T14:12:52;6.88;;;1.95;;
51358;SDS011;37448;51.588;7.248;2022-10-19T14:15:24;8.65;;;2.00;;
51358;SDS011;37448;51.588;7.248;2022-10-19T14:17:57;5.82;;;1.40;;
51358;SDS011;37448;51.588;7.248;2022-10-19T14:20:35;4.90;;;1.52;;
51358;SDS011;37448;51.588;7.248;2022-10-19T14:23:23;8.95;;;1.63;;
51358;SDS011;37448;51.588;7.248;2022-10-19T14:26:03;6.05;;;1.40;;
51358;SDS011;37448;51.588;7.248;2022-10-19T14:28:36;6.90;;;1.58;;
51358;SDS011;37448;51.588;7.248;2022-10-19T14:31:10;7.82;;;1.42;;
51358;SDS011;37448;51.588;7.248;2022-10-19T14:33:51;5.75;;;1.75;;
51358;SDS011;37448;51.588;7.248;2022-10-19T14:36:25;7.57;;;1.60;;
51358;SDS011;37448;51.588;7.248;2022-10-19T14:39:01;6.38;;;2.08;;
51358;SDS011;37448;51.588;7.248;2022-10-19T14:41:33;9.77;;;1.90;;
51358;SDS011;37448;51.588;7.248;2022-10-19T14:46:56;7.68;;;1.40;;
51358;SDS011;37448;51.588;7.248;2022-10-19T14:49:30;6.25;;;1.55;;
51358;SDS011;37448;51.588;7.248;2022-10-19T14:52:00;6.25;;;1.35;;
51358;SDS011;37448;51.588;7.248;2022-10-19T14:54:33;9.07;;;1.80;;
51358;SDS011;37448;51.588;7.248;2022-10-19T14:57:15;7.28;;;2.10;;
51358;SDS011;37448;51.588;7.248;2022-10-19T14:59:55;9.85;;;1.77;;
51358;SDS011;37448;51.588;7.248;2022-10-19T15:02:31;7.60;;;1.92;;
51358;SDS011;37448;51.588;7.248;2022-10-19T15:05:05;7.63;;;2.53;;
51358;SDS011;37448;51.588;7.248;2022-10-19T15:07:47;9.20;;;2.50;;
51358;SDS011;37448;51.588;7.248;2022-10-19T15:12:49;7.68;;;2.25;;
51358;SDS011;37448;51.588;7.248;2022-10-19T15:15:23;8.00;;;2.50;;
51358;SDS011;37448;51.588;7.248;2022-10-19T15:20:29;6.70;;;2.00;;
51358;SDS011;37448;51.588;7.248;2022-10-19T15:26:02;5.85;;;1.70;;
51358;SDS011;37448;51.588;7.248;2022-10-19T15:28:47;8.95;;;1.85;;
51358;SDS011;37448;51.588;7.248;2022-10-19T15:33:49;6.03;;;1.92;;
51358;SDS011;37448;51.588;7.248;2022-10-19T15:41:45;5.53;;;1.80;;
51358;SDS011;37448;51.588;7.248;2022-10-19T15:44:32;8.35;;;1.83;;
51358;SDS011;37448;51.588;7.248;2022-10-19T15:49:49;5.20;;;1.98;;
51358;SDS011;37448;51.588;7.248;2022-10-19T15:52:23;5.45;;;1.77;;
51358;SDS011;37448;51.588;7.248;2022-10-19T15:55:12;9.40;;;2.40;;
51358;SDS011;37448;51.588;7.248;2022-10-19T15:57:43;11.55;;;2.35;;
51358;SDS011;37448;51.588;7.248;2022-10-19T16:00:15;8.52;;;3.05;;
51358;SDS011;37448;51.588;7.248;2022-10-19T16:02:46;8.15;;;2.60;;
51358;SDS011;37448;51.588;7.248;2022-10-19T16:05:17;5.50;;;2.47;;
51358;SDS011;37448;51.588;7.248;2022-10-19T16:07:47;8.77;;;2.60;;
51358;SDS011;37448;51.588;7.248;2022-10-19T16:10:19;5.93;;;2.65;;
51358;SDS011;37448;51.588;7.248;2022-10-19T16:12:51;12.90;;;3.83;;
51358;SDS011;37448;51.588;7.248;2022-10-19T16:15:22;12.75;;;3.70;;
51358;SDS011;37448;51.588;7.248;2022-10-19T16:17:54;12.18;;;4.05;;
51358;SDS011;37448;51.588;7.248;2022-10-19T16:20:28;9.13;;;2.58;;
51358;SDS011;37448;51.588;7.248;2022-10-19T16:22:59;6.57;;;2.78;;
51358;SDS011;37448;51.588;7.248;2022-10-19T16:25:29;9.23;;;3.05;;
51358;SDS011;37448;51.588;7.248;2022-10-19T16:27:59;8.68;;;3.63;;
51358;SDS011;37448;51.588;7.248;2022-10-19T16:30:30;12.43;;;3.10;;
51358;SDS011;37448;51.588;7.248;2022-10-19T16:33:00;8.90;;;3.92;;
51358;SDS011;37448;51.588;7.248;2022-10-19T16:35:31;7.82;;;2.95;;
51358;SDS011;37448;51.588;7.248;2022-10-19T16:38:01;7.30;;;2.83;;
51358;SDS011;37448;51.588;7.248;2022-10-19T16:40:32;8.30;;;3.10;;
51358;SDS011;37448;51.588;7.248;2022-10-19T16:43:02;9.45;;;3.58;;
51358;SDS011;37448;51.588;7.248;2022-10-19T16:45:33;7.05;;;2.95;;
51358;SDS011;37448;51.588;7.248;2022-10-19T16:48:04;7.75;;;2.92;;
51358;SDS011;37448;51.588;7.248;2022-10-19T16:50:35;7.95;;;3.25;;
51358;SDS011;37448;51.588;7.248;2022-10-19T16:53:08;8.50;;;2.90;;
51358;SDS011;37448;51.588;7.248;2022-10-19T16:55:40;9.55;;;3.03;;
51358;SDS011;37448;51.588;7.248;2022-10-19T16:58:13;8.07;;;3.10;;
51358;SDS011;37448;51.588;7.248;2022-10-19T17:00:44;6.90;;;3.00;;
51358;SDS011;37448;51.588;7.248;2022-10-19T17:03:14;8.88;;;3.70;;
51358;SDS011;37448;51.588;7.248;2022-10-19T17:05:44;11.07;;;3.95;;
51358;SDS011;37448;51.588;7.248;2022-10-19T17:08:15;10.82;;;3.20;;
51358;SDS011;37448;51.588;7.248;2022-10-19T17:10:45;11.50;;;3.33;;
51358;SDS011;37448;51.588;7.248;2022-10-19T17:13:16;9.52;;;3.17;;
51358;SDS011;37448;51.588;7.248;2022-10-19T17:15:47;8.63;;;3.70;;
51358;SDS011;37448;51.588;7.248;2022-10-19T17:18:17;9.50;;;3.67;;
51358;SDS011;37448;51.588;7.248;2022-10-19T17:20:47;6.88;;;3.20;;
51358;SDS011;37448;51.588;7.248;2022-10-19T17:23:18;10.18;;;3.80;;
51358;SDS011;37448;51.588;7.248;2022-10-19T17:25:48;11.38;;;3.97;;
51358;SDS011;37448;51.588;7.248;2022-10-19T17:28:18;7.57;;;3.55;;
51358;SDS011;37448;51.588;7.248;2022-10-19T17:30:49;9.07;;;4.43;;
51358;SDS011;37448;51.588;7.248;2022-10-19T17:33:21;7.72;;;3.50;;
51358;SDS011;37448;51.588;7.248;2022-10-19T17:35:51;8.30;;;3.67;;
51358;SDS011;37448;51.588;7.248;2022-10-19T17:38:22;11.02;;;3.60;;
51358;SDS011;37448;51.588;7.248;2022-10-19T17:40:52;9.27;;;3.75;;
51358;SDS011;37448;51.588;7.248;2022-10-19T17:43:22;11.80;;;3.58;;
51358;SDS011;37448;51.588;7.248;2022-10-19T17:45:56;10.25;;;3.95;;